Time;durP1;ratioP1;P1;durP2;ratioP2;P2;SDS_P1;SDS_P2;PMS_P1;PMS_P2;Temp;Humidity;BMP_temperature;BMP_pressure;BME280_temperature;BME280_humidity;BME280_pressure;Samples;Min_cycle;Max_cycle;Signal;HPM_P1;HPM_P2
2022/12/07 00:00:13;;;;;;;11.47;8.23;;;;;;;;;;5052300;28;20206;-89
2022/12/07 00:02:41;;;;;;;16.10;11.90;;;;;;;;;;5046570;28;20813;-89
2022/12/07 00:05:10;;;;;;;11.97;9.03;;;;;;;;;;5071746;28;20205;-88
2022/12/07 00:07:38;;;;;;;10.63;7.93;;;;;;;;;;5071950;28;20224;-88
2022/12/07 00:10:09;;;;;;;9.70;7.40;;;;;;;;;;5068473;28;20210;-89
2022/12/07 00:12:37;;;;;;;11.73;8.87;;;;;;;;;;5051792;28;20209;-89
2022/12/07 00:15:05;;;;;;;11.93;9.33;;;;;;;;;;5034561;28;20221;-89
2022/12/07 00:17:36;;;;;;;13.93;8.57;;;;;;;;;;5034687;28;20209;-89
2022/12/07 00:20:04;;;;;;;12.37;8.13;;;;;;;;;;5051459;28;20225;-89
2022/12/07 00:22:33;;;;;;;9.70;7.43;;;;;;;;;;5058717;28;20683;-89
2022/12/07 00:25:01;;;;;;;9.33;7.97;;;;;;;;;;5057999;28;20225;-92
2022/12/07 00:27:29;;;;;;;9.97;7.93;;;;;;;;;;5071380;28;20221;-92
2022/12/07 00:29:58;;;;;;;10.43;7.47;;;;;;;;;;5041648;28;20227;-92
2022/12/07 00:32:27;;;;;;;10.03;8.17;;;;;;;;;;5066016;28;20744;-91
2022/12/07 00:34:58;;;;;;;9.67;7.57;;;;;;;;;;5051675;28;20245;-92
2022/12/07 00:37:26;;;;;;;10.83;8.27;;;;;;;;;;5055812;28;20205;-92
2022/12/07 00:39:54;;;;;;;12.90;8.87;;;;;;;;;;5060811;28;20221;-92
2022/12/07 00:42:22;;;;;;;18.20;11.53;;;;;;;;;;5048777;28;20209;-90
2022/12/07 00:44:50;;;;;;;14.47;9.23;;;;;;;;;;5051560;28;20214;-90
2022/12/07 00:47:17;;;;;;;23.00;14.40;;;;;;;;;;5051256;28;20692;-90
2022/12/07 00:49:49;;;;;;;12.97;9.30;;;;;;;;;;5030273;28;20598;-90
2022/12/07 00:52:19;;;;;;;13.77;10.73;;;;;;;;;;5034418;28;20206;-90
2022/12/07 00:54:47;;;;;;;14.63;10.33;;;;;;;;;;5034814;28;20217;-91
2022/12/07 00:57:16;;;;;;;17.20;11.40;;;;;;;;;;5034947;28;20218;-90
2022/12/07 00:59:44;;;;;;;14.90;10.70;;;;;;;;;;5048823;28;20210;-90
2022/12/07 01:02:16;;;;;;;12.40;9.13;;;;;;;;;;5035164;28;20600;-89
2022/12/07 01:04:45;;;;;;;14.97;9.57;;;;;;;;;;5035237;28;20214;-90
2022/12/07 01:07:14;;;;;;;12.47;10.00;;;;;;;;;;5035172;28;20261;-89
2022/12/07 01:09:44;;;;;;;12.70;8.10;;;;;;;;;;5034664;28;20233;-90
2022/12/07 01:12:11;;;;;;;12.73;9.60;;;;;;;;;;5054387;28;20209;-90
2022/12/07 01:14:39;;;;;;;9.90;8.63;;;;;;;;;;5061729;28;20220;-90
2022/12/07 01:17:07;;;;;;;11.53;8.23;;;;;;;;;;5035256;28;20650;-90
2022/12/07 01:19:35;;;;;;;13.67;8.97;;;;;;;;;;5034799;28;20632;-91
2022/12/07 01:22:03;;;;;;;13.20;7.93;;;;;;;;;;5038234;28;20587;-90
2022/12/07 01:24:31;;;;;;;12.63;8.47;;;;;;;;;;5054974;28;20214;-90
2022/12/07 01:27:00;;;;;;;11.83;8.77;;;;;;;;;;5037189;28;20234;-90
2022/12/07 01:29:28;;;;;;;11.40;8.33;;;;;;;;;;5054659;28;20236;-90
2022/12/07 01:32:01;;;;;;;9.93;7.47;;;;;;;;;;5054585;28;20208;-90
2022/12/07 01:34:30;;;;;;;11.07;7.43;;;;;;;;;;5046554;28;20210;-90
2022/12/07 01:36:58;;;;;;;12.20;8.10;;;;;;;;;;5017995;28;20214;-91
2022/12/07 01:39:27;;;;;;;10.97;7.47;;;;;;;;;;5054447;28;20217;-91
2022/12/07 01:41:55;;;;;;;24.10;14.43;;;;;;;;;;5070795;28;20259;-90
2022/12/07 01:44:27;;;;;;;23.97;14.20;;;;;;;;;;5074686;28;20263;-91
2022/12/07 01:46:55;;;;;;;20.33;12.73;;;;;;;;;;5074529;28;20959;-90
2022/12/07 01:49:29;;;;;;;16.37;11.53;;;;;;;;;;5074291;28;20225;-91
2022/12/07 01:52:05;;;;;;;19.27;12.37;;;;;;;;;;5057466;28;20201;-90
2022/12/07 01:54:33;;;;;;;18.30;12.20;;;;;;;;;;5074353;28;20197;-93
2022/12/07 01:57:01;;;;;;;18.10;10.30;;;;;;;;;;5049082;28;20209;-90
2022/12/07 01:59:31;;;;;;;14.40;8.77;;;;;;;;;;5053922;28;20692;-90
2022/12/07 02:01:59;;;;;;;10.63;8.43;;;;;;;;;;5060917;28;20702;-90
2022/12/07 02:04:27;;;;;;;15.40;9.73;;;;;;;;;;5073499;28;20211;-92
2022/12/07 02:06:57;;;;;;;14.07;9.27;;;;;;;;;;5074088;28;20217;-92
2022/12/07 02:09:26;;;;;;;13.80;9.73;;;;;;;;;;5074160;28;20224;-92
2022/12/07 02:11:54;;;;;;;14.97;8.90;;;;;;;;;;5073360;28;20639;-91
2022/12/07 02:14:23;;;;;;;11.20;7.47;;;;;;;;;;5045852;28;20221;-90
2022/12/07 02:17:03;;;;;;;13.13;9.43;;;;;;;;;;5039137;28;20220;-90
2022/12/07 02:20:00;;;;;;;11.13;7.70;;;;;;;;;;5056942;28;20212;-90
2022/12/07 02:22:53;;;;;;;14.30;9.63;;;;;;;;;;5073213;28;20213;-90
2022/12/07 02:25:32;;;;;;;11.33;6.57;;;;;;;;;;5073069;28;20213;-90
2022/12/07 02:28:05;;;;;;;10.53;7.20;;;;;;;;;;5073569;28;20201;-90
2022/12/07 02:30:36;;;;;;;17.60;12.63;;;;;;;;;;5055683;28;20269;-90
2022/12/07 02:33:08;;;;;;;23.40;15.37;;;;;;;;;;5045646;28;20570;-91
2022/12/07 02:35:38;;;;;;;22.10;14.53;;;;;;;;;;5067259;28;20206;-90
2022/12/07 02:38:12;;;;;;;20.50;14.43;;;;;;;;;;5036195;28;20213;-90
2022/12/07 02:40:43;;;;;;;14.20;11.03;;;;;;;;;;5056203;28;20255;-90
2022/12/07 02:43:13;;;;;;;12.13;8.67;;;;;;;;;;5073395;28;20212;-91
2022/12/07 02:45:47;;;;;;;11.13;8.10;;;;;;;;;;5073047;28;20216;-90
2022/12/07 02:48:17;;;;;;;12.07;9.17;;;;;;;;;;5073091;28;20611;-89
2022/12/07 02:50:48;;;;;;;12.60;8.23;;;;;;;;;;5060730;28;20225;-89
2022/12/07 02:53:34;;;;;;;12.40;8.40;;;;;;;;;;5071422;28;20246;-88
2022/12/07 02:56:04;;;;;;;11.83;9.17;;;;;;;;;;5059807;28;20202;-88
2022/12/07 02:58:40;;;;;;;12.00;7.90;;;;;;;;;;5058927;28;20201;-89
2022/12/07 03:01:18;;;;;;;11.33;7.63;;;;;;;;;;5072580;28;20706;-90
2022/12/07 03:03:50;;;;;;;11.27;9.13;;;;;;;;;;5055396;28;20590;-89
2022/12/07 03:06:22;;;;;;;12.90;9.40;;;;;;;;;;5072487;28;20293;-90
2022/12/07 03:08:56;;;;;;;12.07;9.17;;;;;;;;;;5072938;28;20221;-89
2022/12/07 03:11:27;;;;;;;13.13;8.83;;;;;;;;;;5041286;28;20221;-89
2022/12/07 03:14:00;;;;;;;13.27;9.10;;;;;;;;;;5059124;28;20213;-90
2022/12/07 03:16:33;;;;;;;13.27;9.00;;;;;;;;;;5055599;28;20240;-92
2022/12/07 03:19:03;;;;;;;19.93;14.13;;;;;;;;;;5060119;28;20208;-92
2022/12/07 03:21:37;;;;;;;12.10;9.53;;;;;;;;;;5055439;28;20207;-92
2022/12/07 03:24:08;;;;;;;10.40;8.40;;;;;;;;;;5066181;28;20761;-92
2022/12/07 03:26:56;;;;;;;26.50;15.63;;;;;;;;;;5035247;28;20218;-94
2022/12/07 03:29:30;;;;;;;25.20;15.53;;;;;;;;;;5043575;28;20225;-93
2022/12/07 03:32:05;;;;;;;20.60;13.00;;;;;;;;;;5056997;28;20209;-92
2022/12/07 03:34:35;;;;;;;18.00;11.37;;;;;;;;;;5052652;28;20209;-90
2022/12/07 03:37:06;;;;;;;12.23;8.60;;;;;;;;;;5049157;28;20205;-90
2022/12/07 03:39:39;;;;;;;12.50;7.60;;;;;;;;;;5034478;28;20271;-91
2022/12/07 03:42:08;;;;;;;11.67;9.10;;;;;;;;;;5053423;28;20251;-90
2022/12/07 03:44:36;;;;;;;10.97;8.17;;;;;;;;;;5072181;28;20208;-91
2022/12/07 03:47:13;;;;;;;10.33;7.80;;;;;;;;;;5062551;28;20206;-91
2022/12/07 03:49:45;;;;;;;9.17;7.97;;;;;;;;;;5068894;28;20273;-90
2022/12/07 03:52:18;;;;;;;12.57;9.67;;;;;;;;;;5072873;28;20235;-90
2022/12/07 03:54:50;;;;;;;12.50;8.97;;;;;;;;;;5054960;28;20247;-91
2022/12/07 03:57:19;;;;;;;11.47;8.57;;;;;;;;;;5062691;28;20205;-90
2022/12/07 03:59:47;;;;;;;9.60;7.57;;;;;;;;;;5040472;28;20284;-91
2022/12/07 04:02:25;;;;;;;13.27;9.20;;;;;;;;;;5071764;28;20197;-90
2022/12/07 04:04:52;;;;;;;23.13;15.97;;;;;;;;;;5071787;28;20569;-92
2022/12/07 04:07:20;;;;;;;18.03;14.73;;;;;;;;;;5054409;28;20695;-92
2022/12/07 04:09:48;;;;;;;17.20;12.77;;;;;;;;;;5071970;28;20227;-92
2022/12/07 04:12:17;;;;;;;16.00;12.50;;;;;;;;;;5064618;28;20214;-93
2022/12/07 04:14:45;;;;;;;15.20;12.23;;;;;;;;;;5065322;28;20698;-92
2022/12/07 04:17:13;;;;;;;18.10;12.80;;;;;;;;;;5065961;28;20267;-93
2022/12/07 04:19:43;;;;;;;25.53;15.80;;;;;;;;;;5052237;28;20236;-91
2022/12/07 04:22:11;;;;;;;25.07;16.47;;;;;;;;;;5051824;28;20217;-91
2022/12/07 04:24:39;;;;;;;22.07;12.73;;;;;;;;;;5063298;28;20205;-90
2022/12/07 04:27:07;;;;;;;15.90;11.50;;;;;;;;;;5074260;28;20219;-91
2022/12/07 04:29:35;;;;;;;12.53;9.27;;;;;;;;;;5067556;28;20307;-90
2022/12/07 04:32:03;;;;;;;16.57;9.93;;;;;;;;;;5053322;28;20205;-92
2022/12/07 04:34:31;;;;;;;18.43;11.40;;;;;;;;;;5068517;28;20270;-90
2022/12/07 04:37:14;;;;;;;22.07;15.90;;;;;;;;;;5075116;28;20702;-92
2022/12/07 04:39:44;;;;;;;23.53;18.47;;;;;;;;;;5058086;28;20205;-92
2022/12/07 04:42:15;;;;;;;24.17;17.93;;;;;;;;;;5075934;28;20282;-90
2022/12/07 04:44:45;;;;;;;24.83;17.60;;;;;;;;;;5074696;28;20220;-90
2022/12/07 04:47:12;;;;;;;18.40;15.33;;;;;;;;;;5065003;28;20268;-89
2022/12/07 04:49:39;;;;;;;20.13;13.27;;;;;;;;;;5057719;28;20236;-82
2022/12/07 04:52:07;;;;;;;18.73;11.47;;;;;;;;;;5069934;28;20201;-88
2022/12/07 04:54:36;;;;;;;19.27;14.10;;;;;;;;;;5051414;28;20598;-91
2022/12/07 04:57:03;;;;;;;20.93;14.50;;;;;;;;;;5073726;28;20209;-91
2022/12/07 04:59:34;;;;;;;19.73;14.03;;;;;;;;;;5057489;28;20243;-87
2022/12/07 05:02:02;;;;;;;19.00;14.33;;;;;;;;;;5072837;28;20642;-90
2022/12/07 05:04:31;;;;;;;17.00;12.87;;;;;;;;;;5074524;28;20209;-90
2022/12/07 05:07:00;;;;;;;17.63;13.20;;;;;;;;;;5057955;28;20228;-89
2022/12/07 05:09:28;;;;;;;15.73;11.00;;;;;;;;;;5062217;28;20776;-90
2022/12/07 05:11:57;;;;;;;23.03;15.70;;;;;;;;;;5068212;28;20251;-91
2022/12/07 05:14:26;;;;;;;17.30;12.27;;;;;;;;;;5061639;28;20200;-91
2022/12/07 05:16:54;;;;;;;14.70;11.30;;;;;;;;;;5074524;28;20270;-91
2022/12/07 05:19:22;;;;;;;17.23;12.13;;;;;;;;;;5072762;28;20280;-88
2022/12/07 05:21:51;;;;;;;15.40;11.80;;;;;;;;;;5073747;28;20319;-89
2022/12/07 05:24:18;;;;;;;13.53;10.57;;;;;;;;;;5072545;28;20212;-91
2022/12/07 05:26:46;;;;;;;14.20;11.23;;;;;;;;;;5066399;28;20706;-90
2022/12/07 05:29:17;;;;;;;15.80;11.77;;;;;;;;;;5058897;28;20224;-88
2022/12/07 05:31:45;;;;;;;13.63;9.87;;;;;;;;;;5062118;28;20197;-89
2022/12/07 05:34:12;;;;;;;12.20;8.03;;;;;;;;;;5071550;28;20204;-90
2022/12/07 05:36:40;;;;;;;10.07;7.03;;;;;;;;;;5066577;28;20675;-91
2022/12/07 05:39:08;;;;;;;13.50;7.30;;;;;;;;;;5071173;28;20197;-90
2022/12/07 05:44:21;;;;;;;27.03;19.03;;;;;;;;;;5069568;28;20208;-91
2022/12/07 05:46:48;;;;;;;28.90;20.67;;;;;;;;;;5068377;28;20664;-90
2022/12/07 05:49:15;;;;;;;16.97;12.60;;;;;;;;;;5050267;28;20225;-89
2022/12/07 05:51:41;;;;;;;15.43;11.03;;;;;;;;;;5043396;28;20206;-91
2022/12/07 05:54:08;;;;;;;13.70;9.00;;;;;;;;;;5063498;28;20197;-87
2022/12/07 05:56:35;;;;;;;11.87;8.23;;;;;;;;;;5052256;28;20210;-87
2022/12/07 06:01:48;;;;;;;10.33;7.10;;;;;;;;;;5058379;28;20707;-88
2022/12/07 06:04:15;;;;;;;10.23;7.23;;;;;;;;;;5048073;28;20234;-87
2022/12/07 06:06:42;;;;;;;9.73;7.03;;;;;;;;;;5070460;28;20270;-87
2022/12/07 06:09:09;;;;;;;10.23;7.37;;;;;;;;;;5046674;28;20690;-87
2022/12/07 06:14:21;;;;;;;20.57;15.50;;;;;;;;;;5042826;28;20260;-87
2022/12/07 06:16:49;;;;;;;26.57;19.83;;;;;;;;;;5055328;28;20208;-88
2022/12/07 06:19:16;;;;;;;22.77;16.97;;;;;;;;;;5069055;28;20205;-87
2022/12/07 06:21:43;;;;;;;31.37;22.03;;;;;;;;;;5040972;28;20581;-88
2022/12/07 06:24:12;;;;;;;17.73;13.00;;;;;;;;;;5059927;28;20274;-85
2022/12/07 06:26:39;;;;;;;13.17;9.27;;;;;;;;;;5061053;28;20252;-86
2022/12/07 06:29:06;;;;;;;21.23;12.07;;;;;;;;;;5067260;28;20605;-82
2022/12/07 06:31:33;;;;;;;146.50;86.17;;;;;;;;;;5071773;28;20251;-82
2022/12/07 06:34:03;;;;;;;150.30;90.80;;;;;;;;;;5051755;28;20196;-84
2022/12/07 06:36:30;;;;;;;104.77;65.27;;;;;;;;;;5066956;28;20193;-89
2022/12/07 06:38:57;;;;;;;64.50;43.17;;;;;;;;;;5047273;28;20581;-87
2022/12/07 06:41:24;;;;;;;90.30;55.77;;;;;;;;;;5052327;28;20264;-86
2022/12/07 06:43:51;;;;;;;73.23;47.53;;;;;;;;;;5046904;28;20201;-87
2022/12/07 06:46:18;;;;;;;63.13;45.40;;;;;;;;;;5040692;28;20220;-88
2022/12/07 06:48:45;;;;;;;88.90;54.60;;;;;;;;;;5055118;28;20676;-85
2022/12/07 06:51:14;;;;;;;95.50;62.50;;;;;;;;;;5038594;28;20233;-91
2022/12/07 06:53:41;;;;;;;60.03;41.73;;;;;;;;;;5060630;28;20213;-90
2022/12/07 06:56:08;;;;;;;49.10;35.00;;;;;;;;;;5054611;28;20209;-89
2022/12/07 06:58:35;;;;;;;41.07;30.33;;;;;;;;;;5048355;28;20689;-90
2022/12/07 07:01:03;;;;;;;38.77;26.53;;;;;;;;;;5047917;28;20205;-91
2022/12/07 07:03:29;;;;;;;31.90;26.83;;;;;;;;;;5067225;28;20244;-88
2022/12/07 07:05:57;;;;;;;35.63;26.20;;;;;;;;;;5062698;28;20213;-86
2022/12/07 07:08:25;;;;;;;32.13;26.30;;;;;;;;;;5046526;28;20322;-88
2022/12/07 07:10:52;;;;;;;33.57;25.73;;;;;;;;;;5041543;28;20229;-88
2022/12/07 07:13:19;;;;;;;34.63;25.93;;;;;;;;;;5071958;28;20224;-88
2022/12/07 07:15:46;;;;;;;29.33;22.30;;;;;;;;;;5053599;28;20683;-87
2022/12/07 07:18:13;;;;;;;32.57;26.07;;;;;;;;;;5071037;28;20201;-91
2022/12/07 07:20:40;;;;;;;33.43;27.77;;;;;;;;;;5047408;28;20202;-90
2022/12/07 07:23:08;;;;;;;65.37;43.43;;;;;;;;;;5068815;28;20201;-90
2022/12/07 07:25:36;;;;;;;62.43;39.13;;;;;;;;;;5054388;28;20247;-88
2022/12/07 07:28:04;;;;;;;45.67;29.03;;;;;;;;;;5056080;28;20202;-83
2022/12/07 07:30:31;;;;;;;43.07;26.13;;;;;;;;;;5050971;28;20643;-88
2022/12/07 07:32:59;;;;;;;35.83;23.10;;;;;;;;;;5066025;28;20216;-89
2022/12/07 07:35:26;;;;;;;33.87;22.23;;;;;;;;;;5061282;28;20676;-90
2022/12/07 07:37:53;;;;;;;34.73;23.43;;;;;;;;;;5040066;28;20627;-90
2022/12/07 07:40:20;;;;;;;26.47;17.03;;;;;;;;;;5071720;28;20632;-89
2022/12/07 07:42:50;;;;;;;21.73;15.73;;;;;;;;;;5069018;28;20620;-90
2022/12/07 07:45:17;;;;;;;21.63;14.77;;;;;;;;;;5061351;28;20216;-91
2022/12/07 07:47:43;;;;;;;23.53;14.63;;;;;;;;;;5070106;28;20704;-84
2022/12/07 07:50:11;;;;;;;17.70;12.43;;;;;;;;;;5070600;28;20240;-86
2022/12/07 07:52:38;;;;;;;19.30;12.77;;;;;;;;;;5047961;28;20200;-88
2022/12/07 07:55:08;;;;;;;16.97;11.67;;;;;;;;;;5052975;28;20209;-86
2022/12/07 07:57:35;;;;;;;18.43;11.60;;;;;;;;;;5070534;28;20197;-87
2022/12/07 08:00:04;;;;;;;22.47;15.47;;;;;;;;;;5070405;28;20383;-86
2022/12/07 08:02:31;;;;;;;16.13;11.67;;;;;;;;;;5052522;28;20209;-83
2022/12/07 08:04:58;;;;;;;15.20;12.37;;;;;;;;;;5062011;28;20213;-83
2022/12/07 08:07:25;;;;;;;15.23;10.17;;;;;;;;;;5070296;28;20247;-83
2022/12/07 08:09:52;;;;;;;14.00;9.07;;;;;;;;;;5070200;28;20224;-84
2022/12/07 08:12:19;;;;;;;15.13;9.93;;;;;;;;;;5068590;28;20208;-87
2022/12/07 08:14:46;;;;;;;12.17;9.50;;;;;;;;;;5021007;28;20571;-82
2022/12/07 08:17:14;;;;;;;14.67;10.23;;;;;;;;;;5064309;28;20201;-85
2022/12/07 08:19:41;;;;;;;13.57;9.27;;;;;;;;;;5057002;28;20205;-86
2022/12/07 08:22:08;;;;;;;11.00;9.63;;;;;;;;;;5070138;28;20912;-87
2022/12/07 08:24:35;;;;;;;13.80;10.33;;;;;;;;;;5052560;28;20745;-85
2022/12/07 08:27:03;;;;;;;13.20;9.60;;;;;;;;;;5070138;28;20286;-87
2022/12/07 08:29:30;;;;;;;13.80;9.40;;;;;;;;;;5070580;28;20212;-85
2022/12/07 08:31:57;;;;;;;19.97;11.13;;;;;;;;;;5070051;28;20225;-88
2022/12/07 08:34:25;;;;;;;22.80;14.50;;;;;;;;;;5049907;28;20201;-87
2022/12/07 08:36:52;;;;;;;18.07;9.97;;;;;;;;;;5052120;28;20201;-88
2022/12/07 08:39:23;;;;;;;13.27;8.73;;;;;;;;;;5039836;28;20206;-91
2022/12/07 08:41:50;;;;;;;13.67;9.27;;;;;;;;;;5053714;28;20359;-89
2022/12/07 08:44:17;;;;;;;17.53;10.20;;;;;;;;;;5038670;28;20260;-86
2022/12/07 08:46:47;;;;;;;19.03;11.03;;;;;;;;;;5061085;28;20194;-85
2022/12/07 08:49:18;;;;;;;14.13;9.00;;;;;;;;;;5059094;28;20209;-88
2022/12/07 08:51:46;;;;;;;14.80;10.03;;;;;;;;;;5070776;28;20232;-88
2022/12/07 08:54:16;;;;;;;16.83;9.87;;;;;;;;;;5052628;28;20737;-88
2022/12/07 08:56:43;;;;;;;13.97;10.60;;;;;;;;;;5053100;28;20216;-88
2022/12/07 08:59:10;;;;;;;12.40;9.47;;;;;;;;;;5070931;28;20212;-88
2022/12/07 09:01:37;;;;;;;16.67;10.70;;;;;;;;;;5052191;28;20586;-87
2022/12/07 09:04:04;;;;;;;13.03;9.53;;;;;;;;;;5062405;28;20209;-88
2022/12/07 09:06:32;;;;;;;12.33;8.40;;;;;;;;;;5032561;28;20684;-88
2022/12/07 09:09:02;;;;;;;13.87;9.10;;;;;;;;;;5033450;28;20699;-89
2022/12/07 09:11:30;;;;;;;12.47;7.33;;;;;;;;;;5064639;28;20721;-91
2022/12/07 09:13:57;;;;;;;10.40;7.03;;;;;;;;;;5066674;28;20217;-89
2022/12/07 09:16:24;;;;;;;14.93;8.97;;;;;;;;;;5036844;28;20715;-87
2022/12/07 09:18:51;;;;;;;13.37;8.03;;;;;;;;;;5054114;28;20589;-86
2022/12/07 09:21:18;;;;;;;14.77;9.23;;;;;;;;;;5063371;28;20202;-87
2022/12/07 09:23:45;;;;;;;12.60;7.90;;;;;;;;;;5036257;28;20214;-87
2022/12/07 09:26:15;;;;;;;12.03;8.50;;;;;;;;;;5053409;28;20267;-88
2022/12/07 09:28:42;;;;;;;14.93;8.30;;;;;;;;;;5069561;28;20197;-88
2022/12/07 09:31:09;;;;;;;20.17;10.13;;;;;;;;;;5056341;28;20228;-89
2022/12/07 09:33:36;;;;;;;12.77;8.67;;;;;;;;;;5059713;28;20633;-88
2022/12/07 09:36:05;;;;;;;14.07;7.70;;;;;;;;;;5050809;28;20272;-89
2022/12/07 09:38:32;;;;;;;17.53;9.93;;;;;;;;;;5048238;28;20622;-88
2022/12/07 09:41:05;;;;;;;19.63;10.23;;;;;;;;;;5055821;28;20237;-87
2022/12/07 09:43:36;;;;;;;17.30;8.80;;;;;;;;;;5054807;28;20208;-87
2022/12/07 09:46:03;;;;;;;14.27;8.70;;;;;;;;;;5064561;28;20212;-88
2022/12/07 09:48:36;;;;;;;12.97;8.77;;;;;;;;;;5073635;28;20204;-88
2022/12/07 09:51:15;;;;;;;13.40;7.93;;;;;;;;;;5055920;28;20287;-88
2022/12/07 09:53:43;;;;;;;11.17;7.07;;;;;;;;;;5061501;28;20204;-86
2022/12/07 09:56:10;;;;;;;14.13;8.03;;;;;;;;;;5058500;28;20224;-85
2022/12/07 09:58:39;;;;;;;14.77;8.20;;;;;;;;;;5066089;28;20201;-92
2022/12/07 10:01:12;;;;;;;12.27;7.93;;;;;;;;;;5049397;28;20205;-91
2022/12/07 10:03:41;;;;;;;12.33;9.57;;;;;;;;;;5057816;28;20201;-88
2022/12/07 10:06:08;;;;;;;12.50;8.60;;;;;;;;;;5053123;28;20213;-92
2022/12/07 10:08:35;;;;;;;20.17;10.07;;;;;;;;;;5035575;28;20213;-88
2022/12/07 10:11:03;;;;;;;9.67;8.33;;;;;;;;;;5046040;28;20699;-87
2022/12/07 10:13:36;;;;;;;15.50;7.93;;;;;;;;;;5054562;28;20759;-87
2022/12/07 10:16:07;;;;;;;13.03;7.93;;;;;;;;;;5063359;28;20201;-90
2022/12/07 10:18:35;;;;;;;13.03;7.83;;;;;;;;;;5072563;28;20193;-88
2022/12/07 10:21:14;;;;;;;11.73;8.13;;;;;;;;;;5049415;28;20205;-89
2022/12/07 10:23:43;;;;;;;9.03;7.67;;;;;;;;;;5071348;28;20687;-88
2022/12/07 10:26:28;;;;;;;11.63;7.87;;;;;;;;;;5072437;28;20208;-87
2022/12/07 10:28:55;;;;;;;14.17;7.17;;;;;;;;;;5070907;28;20201;-87
2022/12/07 10:31:24;;;;;;;10.70;7.87;;;;;;;;;;5071998;28;20237;-91
2022/12/07 10:33:53;;;;;;;10.40;7.60;;;;;;;;;;5060865;28;20201;-88
2022/12/07 10:36:23;;;;;;;13.00;9.87;;;;;;;;;;5065268;28;20217;-88
2022/12/07 10:39:07;;;;;;;13.53;7.17;;;;;;;;;;5060691;28;20201;-88
2022/12/07 10:41:34;;;;;;;11.10;7.50;;;;;;;;;;5066606;28;20225;-87
2022/12/07 10:44:01;;;;;;;10.23;6.97;;;;;;;;;;5059903;28;20209;-87
2022/12/07 10:46:43;;;;;;;11.33;7.80;;;;;;;;;;5064896;28;20205;-88
2022/12/07 10:49:27;;;;;;;12.63;7.50;;;;;;;;;;5062632;28;20295;-87
2022/12/07 10:51:59;;;;;;;9.77;7.80;;;;;;;;;;5046114;28;20232;-87
2022/12/07 10:54:35;;;;;;;12.43;7.30;;;;;;;;;;5060573;28;20202;-88
2022/12/07 10:57:23;;;;;;;10.20;7.87;;;;;;;;;;5052770;28;20668;-88
2022/12/07 11:00:03;;;;;;;10.93;6.90;;;;;;;;;;5050293;28;20267;-87
2022/12/07 11:03:00;;;;;;;12.70;7.90;;;;;;;;;;5063675;28;20636;-88
2022/12/07 11:05:29;;;;;;;12.30;8.93;;;;;;;;;;5065718;28;20635;-87
2022/12/07 11:08:03;;;;;;;12.47;7.43;;;;;;;;;;5053664;28;20706;-88
2022/12/07 11:10:39;;;;;;;9.60;7.10;;;;;;;;;;5056475;28;20216;-88
2022/12/07 11:13:23;;;;;;;9.83;6.77;;;;;;;;;;5047555;28;20233;-86
2022/12/07 11:16:01;;;;;;;11.23;7.20;;;;;;;;;;5037094;28;20224;-92
2022/12/07 11:18:33;;;;;;;11.93;8.00;;;;;;;;;;5063044;28;20209;-90
2022/12/07 11:21:08;;;;;;;9.07;7.53;;;;;;;;;;5066006;28;20204;-88
2022/12/07 11:23:44;;;;;;;11.90;9.13;;;;;;;;;;5047632;28;20204;-93
2022/12/07 11:26:15;;;;;;;10.67;6.93;;;;;;;;;;5065791;28;20204;-91
2022/12/07 11:28:58;;;;;;;40.43;22.90;;;;;;;;;;5060589;28;20293;-92
2022/12/07 11:31:30;;;;;;;15.10;11.70;;;;;;;;;;5044429;28;20720;-87
2022/12/07 11:34:04;;;;;;;17.90;8.33;;;;;;;;;;5070863;28;20668;-87
2022/12/07 11:36:39;;;;;;;12.33;8.17;;;;;;;;;;5070053;28;20706;-84
2022/12/07 11:39:13;;;;;;;10.80;7.70;;;;;;;;;;5057923;28;20221;-85
2022/12/07 11:41:42;;;;;;;9.20;7.07;;;;;;;;;;5056046;28;20251;-85
2022/12/07 11:44:14;;;;;;;12.93;9.50;;;;;;;;;;5053853;28;20201;-90
2022/12/07 11:46:50;;;;;;;12.63;8.90;;;;;;;;;;5053789;28;20216;-88
2022/12/07 11:49:22;;;;;;;12.00;7.63;;;;;;;;;;5066074;28;20201;-86
2022/12/07 11:51:50;;;;;;;12.40;8.17;;;;;;;;;;5045307;28;20220;-88
2022/12/07 11:54:20;;;;;;;20.07;9.10;;;;;;;;;;5071125;28;20757;-86
2022/12/07 11:56:49;;;;;;;15.33;9.53;;;;;;;;;;5053191;28;20646;-87
2022/12/07 11:59:20;;;;;;;12.80;10.03;;;;;;;;;;5071463;28;20199;-90
2022/12/07 12:01:54;;;;;;;27.57;18.80;;;;;;;;;;5039543;28;20218;-88
2022/12/07 12:04:40;;;;;;;23.40;14.37;;;;;;;;;;5070872;28;20201;-88
2022/12/07 12:07:08;;;;;;;16.07;11.87;;;;;;;;;;5055769;28;20625;-88
2022/12/07 12:09:36;;;;;;;16.83;11.90;;;;;;;;;;5041814;28;20231;-89
2022/12/07 12:12:33;;;;;;;22.37;16.23;;;;;;;;;;5070263;28;20595;-87
2022/12/07 12:15:14;;;;;;;19.53;14.13;;;;;;;;;;5049306;28;20259;-87
2022/12/07 12:18:12;;;;;;;15.13;13.20;;;;;;;;;;5068563;28;20205;-88
2022/12/07 12:20:43;;;;;;;24.23;14.53;;;;;;;;;;5053577;28;20208;-90
2022/12/07 12:23:13;;;;;;;21.40;15.23;;;;;;;;;;5063011;28;20209;-89
2022/12/07 12:25:43;;;;;;;20.70;14.77;;;;;;;;;;5042282;28;20217;-87
2022/12/07 12:28:22;;;;;;;20.40;13.80;;;;;;;;;;5070643;28;20240;-90
2022/12/07 12:31:06;;;;;;;17.13;13.73;;;;;;;;;;5061493;28;20205;-88
2022/12/07 12:33:34;;;;;;;25.10;13.37;;;;;;;;;;5068550;28;20258;-89
2022/12/07 12:36:34;;;;;;;20.47;13.27;;;;;;;;;;5043623;28;20206;-87
2022/12/07 12:39:14;;;;;;;20.63;15.03;;;;;;;;;;5050371;28;20197;-88
2022/12/07 12:42:08;;;;;;;23.20;15.80;;;;;;;;;;5070751;28;20722;-86
2022/12/07 12:45:13;;;;;;;23.53;14.80;;;;;;;;;;5056847;28;20238;-89
2022/12/07 12:48:04;;;;;;;28.33;15.23;;;;;;;;;;5072333;28;20205;-86
2022/12/07 12:50:32;;;;;;;23.73;16.93;;;;;;;;;;5067836;28;20232;-84
2022/12/07 12:53:05;;;;;;;24.17;14.30;;;;;;;;;;5071638;28;20232;-85
2022/12/07 12:56:09;;;;;;;24.27;16.63;;;;;;;;;;5036126;28;20711;-86
2022/12/07 12:58:38;;;;;;;24.23;16.33;;;;;;;;;;5060862;28;20201;-87
2022/12/07 13:01:45;;;;;;;22.97;16.83;;;;;;;;;;5074216;28;20201;-88
2022/12/07 13:04:59;;;;;;;18.90;14.27;;;;;;;;;;5063458;28;20211;-88
2022/12/07 13:08:05;;;;;;;21.33;15.17;;;;;;;;;;5064078;28;20205;-87
2022/12/07 13:10:41;;;;;;;26.57;18.93;;;;;;;;;;5060036;28;20207;-86
2022/12/07 13:13:34;;;;;;;17.27;13.37;;;;;;;;;;5070066;28;20223;-88
2022/12/07 13:16:39;;;;;;;26.27;16.03;;;;;;;;;;5066594;28;20213;-87
2022/12/07 13:19:42;;;;;;;19.93;15.50;;;;;;;;;;5069469;28;20706;-87
2022/12/07 13:22:44;;;;;;;17.40;13.73;;;;;;;;;;5053395;28;20208;-87
2022/12/07 13:25:13;;;;;;;24.50;15.27;;;;;;;;;;5073338;28;20216;-87
2022/12/07 13:27:42;;;;;;;22.40;14.93;;;;;;;;;;5073506;28;20213;-87
2022/12/07 13:30:15;;;;;;;20.57;14.70;;;;;;;;;;5073478;28;20292;-87
2022/12/07 13:32:42;;;;;;;26.00;19.30;;;;;;;;;;5073364;28;20228;-87
2022/12/07 13:35:34;;;;;;;20.90;16.83;;;;;;;;;;5047191;28;20216;-88
2022/12/07 13:38:03;;;;;;;37.40;28.27;;;;;;;;;;5072909;28;20664;-88
2022/12/07 13:40:31;;;;;;;21.63;15.57;;;;;;;;;;5056440;28;20320;-89
2022/12/07 13:42:59;;;;;;;23.13;15.67;;;;;;;;;;5049265;28;20208;-89
2022/12/07 13:48:15;;;;;;;21.77;14.53;;;;;;;;;;5057122;28;20205;-85
2022/12/07 13:50:42;;;;;;;25.80;19.30;;;;;;;;;;5073638;28;20205;-90
2022/12/07 13:53:14;;;;;;;17.73;14.17;;;;;;;;;;5073736;28;20224;-93
2022/12/07 13:55:46;;;;;;;23.53;17.53;;;;;;;;;;5073428;28;20760;-90
2022/12/07 13:58:13;;;;;;;36.30;22.47;;;;;;;;;;5059305;28;20205;-88
2022/12/07 14:00:42;;;;;;;54.17;33.37;;;;;;;;;;5055818;28;20209;-93
2022/12/07 14:03:27;;;;;;;30.67;20.10;;;;;;;;;;5073540;28;20240;-86
2022/12/07 14:06:06;;;;;;;20.27;12.47;;;;;;;;;;5066744;28;20568;-88
2022/12/07 14:08:32;;;;;;;17.37;12.33;;;;;;;;;;5065571;28;20292;-86
2022/12/07 14:11:00;;;;;;;17.73;12.03;;;;;;;;;;5065376;28;20197;-88
2022/12/07 14:13:31;;;;;;;25.47;17.37;;;;;;;;;;5048781;28;20225;-87
2022/12/07 14:16:01;;;;;;;29.00;19.83;;;;;;;;;;5065519;28;20201;-89
2022/12/07 14:18:30;;;;;;;49.80;30.90;;;;;;;;;;5070985;28;20209;-87
2022/12/07 14:21:07;;;;;;;47.70;30.23;;;;;;;;;;5065857;28;20201;-87
2022/12/07 14:23:34;;;;;;;76.27;49.30;;;;;;;;;;5070001;28;20205;-87
2022/12/07 14:26:08;;;;;;;46.47;33.00;;;;;;;;;;5053053;28;20212;-87
2022/12/07 14:28:37;;;;;;;35.63;20.13;;;;;;;;;;5067674;28;20207;-87
2022/12/07 14:31:12;;;;;;;46.80;26.73;;;;;;;;;;5068509;28;20205;-87
2022/12/07 14:33:40;;;;;;;43.07;28.17;;;;;;;;;;5041549;28;20630;-87
2022/12/07 14:36:08;;;;;;;50.40;32.33;;;;;;;;;;5065064;28;20205;-87
2022/12/07 14:38:37;;;;;;;49.07;37.37;;;;;;;;;;5063798;28;20216;-87
2022/12/07 14:43:56;;;;;;;22.23;15.17;;;;;;;;;;5054225;28;20200;-87
2022/12/07 14:46:25;;;;;;;26.73;18.73;;;;;;;;;;5051318;28;20221;-86
2022/12/07 14:48:52;;;;;;;35.10;25.97;;;;;;;;;;5032227;28;20222;-88
2022/12/07 14:51:19;;;;;;;37.70;26.63;;;;;;;;;;5060385;28;20220;-87
2022/12/07 14:53:47;;;;;;;28.47;19.93;;;;;;;;;;5070967;28;20225;-86
2022/12/07 14:56:14;;;;;;;45.03;28.03;;;;;;;;;;5070478;28;20200;-87
2022/12/07 14:58:41;;;;;;;34.73;24.80;;;;;;;;;;5064144;28;20213;-86
2022/12/07 15:01:08;;;;;;;30.93;18.43;;;;;;;;;;5064810;28;20279;-86